createdAt,value
2016-06-07T00:00:31.257Z,1004.83
2016-06-07T00:01:31.260Z,1004.85
2016-06-07T00:02:31.294Z,1004.84
2016-06-07T00:03:31.312Z,1004.86
2016-06-07T00:04:31.329Z,1004.88
2016-06-07T00:05:31.349Z,1004.84
2016-06-07T00:06:31.554Z,1004.84
2016-06-07T00:07:31.385Z,1004.88
2016-06-07T00:08:31.403Z,1004.87
2016-06-07T00:09:31.437Z,1004.85
2016-06-07T00:10:31.455Z,1004.86
2016-06-07T00:11:31.474Z,1004.84
2016-06-07T00:12:31.493Z,1004.85
2016-06-07T00:13:31.510Z,1004.89
2016-06-07T00:14:31.528Z,1004.91
2016-06-07T00:15:31.562Z,1004.91
2016-06-07T00:16:31.581Z,1004.92
2016-06-07T00:17:31.615Z,1004.93
2016-06-07T00:18:31.617Z,1004.93
2016-06-07T00:19:31.636Z,1004.93
2016-06-07T00:20:31.670Z,1004.9
2016-06-07T00:21:31.689Z,1004.9
2016-06-07T00:22:31.707Z,1004.91
2016-06-07T00:23:31.725Z,1004.94
2016-06-07T00:24:31.742Z,1004.99
2016-06-07T00:25:31.761Z,1004.99
2016-06-07T00:26:31.780Z,1004.99
2016-06-07T00:27:31.797Z,1004.97
2016-06-07T00:28:31.833Z,1005
2016-06-07T00:29:31.851Z,1004.99
2016-06-07T00:30:31.869Z,1004.96
2016-06-07T00:31:31.886Z,1005
2016-06-07T00:32:31.905Z,1004.99
2016-06-07T00:33:31.924Z,1004.95
2016-06-07T00:34:31.942Z,1004.98
2016-06-07T00:35:31.960Z,1004.99
2016-06-07T00:36:31.994Z,1005
2016-06-07T00:37:32.012Z,1005
2016-06-07T00:38:32.031Z,1005.02
2016-06-07T00:39:32.049Z,1004.98
2016-06-07T00:40:32.067Z,1005.02
2016-06-07T00:41:32.101Z,1005.02
2016-06-07T00:42:32.120Z,1005.03
2016-06-07T00:43:32.138Z,1005.03
2016-06-07T00:44:32.156Z,1005.04
2016-06-07T00:45:32.174Z,1005.03
2016-06-07T00:46:32.193Z,1005.03
2016-06-07T00:47:32.227Z,1004.99
2016-06-07T00:48:32.245Z,1004.99
2016-06-07T00:49:32.279Z,1004.95
2016-06-07T00:50:32.281Z,1005
2016-06-07T00:51:32.300Z,1004.97
2016-06-07T00:52:32.318Z,1004.98
2016-06-07T00:53:32.337Z,1004.98
2016-06-07T00:54:32.355Z,1004.99
2016-06-07T00:55:32.373Z,1005
2016-06-07T00:56:32.408Z,1004.96
2016-06-07T00:57:32.426Z,1004.97
2016-06-07T00:58:32.444Z,1004.97
2016-06-07T00:59:32.462Z,1005
2016-06-07T01:00:32.481Z,1004.98
2016-06-07T01:01:32.499Z,1004.96
2016-06-07T01:02:32.517Z,1004.94
2016-06-07T01:03:32.552Z,1004.95
2016-06-07T01:04:32.569Z,1004.97
2016-06-07T01:05:32.588Z,1005.01
2016-06-07T01:06:32.605Z,1005.01
2016-06-07T01:07:32.624Z,1005.03
2016-06-07T01:08:32.658Z,1004.99
2016-06-07T01:09:32.661Z,1004.97
2016-06-07T01:10:32.696Z,1004.99
2016-06-07T01:11:32.713Z,1004.99
2016-06-07T01:12:32.731Z,1005
2016-06-07T01:13:32.749Z,1004.99
2016-06-07T01:14:32.768Z,1005
2016-06-07T01:15:32.787Z,1005.02
2016-06-07T01:16:32.820Z,1005
2016-06-07T01:17:32.823Z,1005.02
2016-06-07T01:18:32.857Z,1004.96
2016-06-07T01:19:32.875Z,1005.01
2016-06-07T01:20:32.893Z,1004.98
2016-06-07T01:21:32.928Z,1004.96
2016-06-07T01:22:32.931Z,1004.98
2016-06-07T01:23:32.964Z,1005.02
2016-06-07T01:24:32.967Z,1005
2016-06-07T01:25:33.000Z,1005
2016-06-07T01:26:33.020Z,1005.01
2016-06-07T01:27:33.037Z,1004.96
2016-06-07T01:28:33.056Z,1004.97
2016-06-07T01:29:33.074Z,1004.96
2016-06-07T01:30:33.092Z,1004.95
2016-06-07T01:31:33.127Z,1005.01
2016-06-07T01:32:33.145Z,1004.99
2016-06-07T01:33:33.163Z,1004.99
2016-06-07T01:34:33.181Z,1005.01
2016-06-07T01:35:33.199Z,1004.99
2016-06-07T01:36:33.219Z,1005.01
2016-06-07T01:37:33.252Z,1005.01
2016-06-07T01:38:33.271Z,1005.03
2016-06-07T01:39:33.288Z,1005.05
2016-06-07T01:40:33.307Z,1005.02
2016-06-07T01:41:33.325Z,1005.02
2016-06-07T01:42:33.344Z,1005.06
2016-06-07T01:43:33.362Z,1005.06
2016-06-07T01:44:33.379Z,1005.09
2016-06-07T01:45:33.398Z,1005.07
2016-06-07T01:46:33.432Z,1005.1
2016-06-07T01:47:33.434Z,1005.1
2016-06-07T01:48:33.472Z,1005.09
2016-06-07T01:49:33.506Z,1005.09
2016-06-07T01:50:33.539Z,1005.06
2016-06-07T01:51:33.572Z,1005.04
2016-06-07T01:52:33.605Z,1005.05
2016-06-07T01:53:33.637Z,1005.05
2016-06-07T01:54:33.660Z,1005.08
2016-06-07T01:55:33.699Z,1005.05
2016-06-07T01:56:33.724Z,1005.05
2016-06-07T01:57:33.747Z,1005.03
2016-06-07T01:58:33.770Z,1005.05
2016-06-07T01:59:33.790Z,1005.02
2016-06-07T02:00:33.810Z,1004.99
2016-06-07T02:01:33.846Z,1005.02
2016-06-07T02:02:33.866Z,1004.99
2016-06-07T02:03:33.886Z,1005.01
2016-06-07T02:04:33.906Z,1004.97
2016-06-07T02:05:33.925Z,1004.98
2016-06-07T02:06:33.944Z,1005
2016-06-07T02:07:33.963Z,1004.97
2016-06-07T02:08:33.982Z,1004.96
2016-06-07T02:09:34.001Z,1004.97
2016-06-07T02:10:34.019Z,1004.97
2016-06-07T02:11:34.053Z,1005
2016-06-07T02:12:34.072Z,1005
2016-06-07T02:13:34.091Z,1005.01
2016-06-07T02:14:34.110Z,1004.97
2016-06-07T02:15:34.127Z,1004.99
2016-06-07T02:16:34.146Z,1005.01
2016-06-07T02:17:34.163Z,1004.97
2016-06-07T02:18:34.183Z,1004.98
2016-06-07T02:19:34.216Z,1005.01
2016-06-07T02:20:34.235Z,1005
2016-06-07T02:21:34.284Z,1004.97
2016-06-07T02:22:34.271Z,1004.98
2016-06-07T02:23:34.290Z,1004.98
2016-06-07T02:24:34.324Z,1004.97
2016-06-07T02:25:34.326Z,1004.97
2016-06-07T02:26:34.360Z,1004.96
2016-06-07T02:27:34.363Z,1004.97
2016-06-07T02:28:34.397Z,1004.95
2016-06-07T02:29:34.415Z,1004.95
2016-06-07T02:30:34.433Z,1004.97
2016-06-07T02:31:34.451Z,1004.99
2016-06-07T02:32:34.470Z,1004.95
2016-06-07T02:33:34.489Z,1004.93
2016-06-07T02:34:34.507Z,1004.89
2016-06-07T02:35:34.525Z,1004.91
2016-06-07T02:36:34.559Z,1004.9
2016-06-07T02:37:34.577Z,1004.92
2016-06-07T02:38:34.595Z,1004.88
2016-06-07T02:39:34.614Z,1004.89
2016-06-07T02:40:34.633Z,1004.87
2016-06-07T02:41:34.650Z,1004.85
2016-06-07T02:42:34.669Z,1004.84
2016-06-07T02:43:34.703Z,1004.83
2016-06-07T02:44:34.721Z,1004.82
2016-06-07T02:45:34.739Z,1004.82
2016-06-07T02:46:34.758Z,1004.81
2016-06-07T02:47:34.776Z,1004.81
2016-06-07T02:48:34.794Z,1004.83
2016-06-07T02:49:34.812Z,1004.81
2016-06-07T02:50:34.832Z,1004.82
2016-06-07T02:51:34.850Z,1004.81
2016-06-07T02:52:34.882Z,1004.82
2016-06-07T02:53:34.886Z,1004.77
2016-06-07T02:54:34.920Z,1004.82
2016-06-07T02:55:34.938Z,1004.78
2016-06-07T02:56:34.957Z,1004.81
2016-06-07T02:57:34.975Z,1004.82
2016-06-07T02:58:34.993Z,1004.8
2016-06-07T02:59:35.012Z,1004.81
2016-06-07T03:00:35.030Z,1004.84
2016-06-07T03:01:35.048Z,1004.8
2016-06-07T03:02:35.082Z,1004.84
2016-06-07T03:03:35.100Z,1004.83
2016-06-07T03:04:35.119Z,1004.87
2016-06-07T03:05:35.137Z,1004.87
2016-06-07T03:06:35.749Z,1004.86
2016-06-07T03:07:35.173Z,1004.83
2016-06-07T03:08:35.192Z,1004.85
2016-06-07T03:09:35.211Z,1004.87
2016-06-07T03:10:35.228Z,1004.9
2016-06-07T03:11:35.263Z,1004.86
2016-06-07T03:12:35.280Z,1004.86
2016-06-07T03:13:35.299Z,1004.86
2016-06-07T03:14:35.317Z,1004.88
2016-06-07T03:15:35.335Z,1004.89
2016-06-07T03:16:35.354Z,1004.91
2016-06-07T03:17:35.372Z,1004.97
2016-06-07T03:18:35.391Z,1004.93
2016-06-07T03:19:35.425Z,1004.97
2016-06-07T03:20:35.427Z,1004.96
2016-06-07T03:21:35.446Z,1004.96
2016-06-07T03:22:35.464Z,1004.96
2016-06-07T03:23:35.498Z,1004.92
2016-06-07T03:24:35.516Z,1004.95
2016-06-07T03:25:35.551Z,1004.96
2016-06-07T03:26:35.554Z,1004.97
2016-06-07T03:27:35.571Z,1004.99
2016-06-07T03:28:35.590Z,1004.98
2016-06-07T03:29:35.607Z,1004.97
2016-06-07T03:30:35.626Z,1005.01
2016-06-07T03:31:35.660Z,1005
2016-06-07T03:32:35.679Z,1005
2016-06-07T03:33:35.697Z,1004.96
2016-06-07T03:34:35.715Z,1005.01
2016-06-07T03:35:35.733Z,1005
2016-06-07T03:36:35.751Z,1004.99
2016-06-07T03:37:35.770Z,1005.03
2016-06-07T03:38:35.788Z,1005.01
2016-06-07T03:39:35.806Z,1005.05
2016-06-07T03:40:35.825Z,1005.03
2016-06-07T03:41:35.859Z,1005.01
2016-06-07T03:42:35.877Z,1005.05
2016-06-07T03:43:35.895Z,1005.05
2016-06-07T03:44:35.914Z,1005.06
2016-06-07T03:45:35.932Z,1005.06
2016-06-07T03:46:35.950Z,1005.02
2016-06-07T03:47:35.969Z,1005.03
2016-06-07T03:48:35.987Z,1004.97
2016-06-07T03:49:36.005Z,1004.98
2016-06-07T03:50:36.039Z,1005
2016-06-07T03:51:36.058Z,1004.98
2016-06-07T03:52:36.076Z,1004.98
2016-06-07T03:53:36.094Z,1004.99
2016-06-07T03:54:36.113Z,1005.02
2016-06-07T03:55:36.131Z,1005
2016-06-07T03:56:36.149Z,1005.04
2016-06-07T03:57:36.167Z,1005.03
2016-06-07T03:58:36.201Z,1005.06
2016-06-07T03:59:36.220Z,1005.1
2016-06-07T04:00:36.238Z,1005.05
2016-06-07T04:01:36.257Z,1005.07
2016-06-07T04:02:36.275Z,1005.09
2016-06-07T04:03:36.293Z,1005.07
2016-06-07T04:04:36.311Z,1005.06
2016-06-07T04:05:36.329Z,1005.03
2016-06-07T04:06:36.520Z,1005.06
2016-06-07T04:07:36.367Z,1005.08
2016-06-07T04:08:36.400Z,1005.09
2016-06-07T04:09:36.419Z,1005.15
2016-06-07T04:10:36.437Z,1005.19
2016-06-07T04:11:36.455Z,1005.18
2016-06-07T04:12:36.473Z,1005.19
2016-06-07T04:13:36.492Z,1005.24
2016-06-07T04:14:36.511Z,1005.25
2016-06-07T04:15:36.528Z,1005.27
2016-06-07T04:16:36.562Z,1005.28
2016-06-07T04:17:36.581Z,1005.27
2016-06-07T04:18:36.600Z,1005.22
2016-06-07T04:19:36.617Z,1005.27
2016-06-07T04:20:36.635Z,1005.27
2016-06-07T04:21:36.654Z,1005.29
2016-06-07T04:22:36.688Z,1005.29
2016-06-07T04:23:36.707Z,1005.28
2016-06-07T04:24:36.725Z,1005.3
2016-06-07T04:25:36.743Z,1005.3
2016-06-07T04:26:36.760Z,1005.27
2016-06-07T04:27:36.780Z,1005.31
2016-06-07T04:28:36.798Z,1005.32
2016-06-07T04:29:36.816Z,1005.29
2016-06-07T04:30:36.850Z,1005.32
2016-06-07T04:31:36.869Z,1005.28
2016-06-07T04:32:36.887Z,1005.3
2016-06-07T04:33:36.904Z,1005.32
2016-06-07T04:34:36.924Z,1005.29
2016-06-07T04:35:36.941Z,1005.34
2016-06-07T04:36:36.976Z,1005.31
2016-06-07T04:37:37.400Z,1005.35
2016-06-07T04:38:37.012Z,1005.35
2016-06-07T04:39:37.030Z,1005.38
2016-06-07T04:40:37.049Z,1005.36
2016-06-07T04:41:37.083Z,1005.38
2016-06-07T04:42:37.101Z,1005.39
2016-06-07T04:43:37.119Z,1005.37
2016-06-07T04:44:37.139Z,1005.37
2016-06-07T04:45:37.155Z,1005.37
2016-06-07T04:46:37.189Z,1005.39
2016-06-07T04:47:37.208Z,1005.38
2016-06-07T04:48:37.227Z,1005.42
2016-06-07T04:49:37.245Z,1005.42
2016-06-07T04:50:37.263Z,1005.42
2016-06-07T04:51:37.282Z,1005.4
2016-06-07T04:52:37.315Z,1005.44
2016-06-07T04:53:37.333Z,1005.4
2016-06-07T04:54:37.352Z,1005.42
2016-06-07T04:55:37.371Z,1005.42
2016-06-07T04:56:37.404Z,1005.4
2016-06-07T04:57:37.423Z,1005.39
2016-06-07T04:58:37.457Z,1005.43
2016-06-07T04:59:37.460Z,1005.45
2016-06-07T05:00:37.477Z,1005.41
2016-06-07T05:01:37.496Z,1005.4
2016-06-07T05:02:37.529Z,1005.45
2016-06-07T05:03:37.548Z,1005.45
2016-06-07T05:04:37.567Z,1005.44
2016-06-07T05:05:37.585Z,1005.46
2016-06-07T05:06:37.619Z,1005.47
2016-06-07T05:07:38.106Z,1005.47
2016-06-07T05:08:37.656Z,1005.49
2016-06-07T05:09:37.673Z,1005.45
2016-06-07T05:10:37.692Z,1005.43
2016-06-07T05:11:37.726Z,1005.49
2016-06-07T05:12:37.744Z,1005.5
2016-06-07T05:13:37.762Z,1005.5
2016-06-07T05:14:37.781Z,1005.52
2016-06-07T05:15:37.815Z,1005.48
2016-06-07T05:16:37.833Z,1005.49
2016-06-07T05:17:37.851Z,1005.48
2016-06-07T05:18:37.870Z,1005.51
2016-06-07T05:19:37.888Z,1005.5
2016-06-07T05:20:37.922Z,1005.5
2016-06-07T05:21:37.940Z,1005.5
2016-06-07T05:22:37.991Z,1005.53
2016-06-07T05:23:37.993Z,1005.56
2016-06-07T05:24:38.011Z,1005.5
2016-06-07T05:25:38.029Z,1005.57
2016-06-07T05:26:38.047Z,1005.55
2016-06-07T05:27:38.082Z,1005.57
2016-06-07T05:28:38.100Z,1005.56
2016-06-07T05:29:38.118Z,1005.59
2016-06-07T05:30:38.136Z,1005.58
2016-06-07T05:31:38.170Z,1005.57
2016-06-07T05:32:38.188Z,1005.6
2016-06-07T05:33:38.207Z,1005.61
2016-06-07T05:34:38.226Z,1005.65
2016-06-07T05:35:38.260Z,1005.62
2016-06-07T05:36:38.278Z,1005.65
2016-06-07T05:37:38.780Z,1005.68
2016-06-07T05:38:38.315Z,1005.68
2016-06-07T05:39:38.364Z,1005.7
2016-06-07T05:40:38.367Z,1005.69
2016-06-07T05:41:38.384Z,1005.68
2016-06-07T05:42:38.403Z,1005.7
2016-06-07T05:43:38.422Z,1005.68
2016-06-07T05:44:38.456Z,1005.69
2016-06-07T05:45:38.473Z,1005.71
2016-06-07T05:46:38.492Z,1005.75
2016-06-07T05:47:38.510Z,1005.72
2016-06-07T05:48:38.544Z,1005.76
2016-06-07T05:49:38.563Z,1005.73
2016-06-07T05:50:38.580Z,1005.75
2016-06-07T05:51:38.599Z,1005.76
2016-06-07T05:52:38.633Z,1005.78
2016-06-07T05:53:38.652Z,1005.78
2016-06-07T05:54:38.686Z,1005.8
2016-06-07T05:55:38.704Z,1005.82
2016-06-07T05:56:38.722Z,1005.81
2016-06-07T05:57:38.741Z,1005.82
2016-06-07T05:58:38.759Z,1005.86
2016-06-07T05:59:38.793Z,1005.86
2016-06-07T06:00:38.810Z,1005.83
2016-06-07T06:01:38.830Z,1005.89
2016-06-07T06:02:38.848Z,1005.88
2016-06-07T06:03:38.882Z,1005.86
2016-06-07T06:04:38.899Z,1005.85
2016-06-07T06:05:38.918Z,1005.86
2016-06-07T06:06:38.952Z,1005.85
2016-06-07T06:08:38.989Z,1005.88
2016-06-07T06:09:39.007Z,1005.88
2016-06-07T06:10:39.041Z,1005.92
2016-06-07T06:11:39.059Z,1005.89
2016-06-07T06:12:39.078Z,1005.9
2016-06-07T06:13:39.096Z,1005.91
2016-06-07T06:14:39.130Z,1005.91
2016-06-07T06:15:39.148Z,1005.84
2016-06-07T06:16:39.181Z,1005.92
2016-06-07T06:17:39.201Z,1005.92
2016-06-07T06:18:39.219Z,1005.93
2016-06-07T06:19:39.237Z,1005.91
2016-06-07T06:20:39.255Z,1005.97
2016-06-07T06:21:39.305Z,1005.92
2016-06-07T06:22:39.323Z,1005.96
2016-06-07T06:23:39.342Z,1005.96
2016-06-07T06:24:39.360Z,1005.97
2016-06-07T06:25:39.378Z,1005.96
2016-06-07T06:26:39.413Z,1005.97
2016-06-07T06:27:39.430Z,1005.95
2016-06-07T06:28:39.449Z,1005.94
2016-06-07T06:29:39.466Z,1005.98
2016-06-07T06:30:39.502Z,1005.98
2016-06-07T06:31:39.519Z,1005.97
2016-06-07T06:32:39.553Z,1005.95
2016-06-07T06:33:39.572Z,1005.98
2016-06-07T06:34:39.590Z,1006.02
2016-06-07T06:35:39.607Z,1005.99
2016-06-07T06:36:39.642Z,1006.01
2016-06-07T06:37:39.660Z,1006.02
2016-06-07T06:38:39.679Z,1006
2016-06-07T06:39:39.712Z,1005.98
2016-06-07T06:40:39.731Z,1006.01
2016-06-07T06:41:39.748Z,1005.99
2016-06-07T06:42:39.784Z,1005.99
2016-06-07T06:43:39.802Z,1006.02
2016-06-07T06:44:39.867Z,1006.04
2016-06-07T06:45:39.853Z,1006.01
2016-06-07T06:46:39.873Z,1005.98
2016-06-07T06:47:39.890Z,1006
2016-06-07T06:48:39.924Z,1006.03
2016-06-07T06:49:39.943Z,1006.03
2016-06-07T06:50:39.961Z,1006.04
2016-06-07T06:51:39.995Z,1006.03
2016-06-07T06:52:40.013Z,1006.06
2016-06-07T06:53:40.048Z,1006.01
2016-06-07T06:54:40.066Z,1006.03
2016-06-07T06:55:40.099Z,1005.99
2016-06-07T06:56:40.103Z,1006.07
2016-06-07T06:57:40.136Z,1006.05
2016-06-07T06:58:40.155Z,1006.04
2016-06-07T06:59:40.172Z,1006.04
2016-06-07T07:00:40.206Z,1006.06
2016-06-07T07:01:40.225Z,1006.06
2016-06-07T07:02:40.244Z,1006.07
2016-06-07T07:03:40.277Z,1006.09
2016-06-07T07:04:40.296Z,1006.04
2016-06-07T07:05:40.314Z,1006.06
2016-06-07T07:06:40.348Z,1006.06
2016-06-07T07:07:40.366Z,1006.07
2016-06-07T07:08:40.384Z,1006.05
2016-06-07T07:09:40.403Z,1006.06
2016-06-07T07:10:40.437Z,1006.02
2016-06-07T07:11:40.454Z,1006.08
2016-06-07T07:12:40.489Z,1006.07
2016-06-07T07:13:40.507Z,1006.06
2016-06-07T07:14:40.542Z,1006.05
2016-06-07T07:15:40.559Z,1006.07
2016-06-07T07:16:40.578Z,1006.02
2016-06-07T07:17:40.612Z,1006.05
2016-06-07T07:18:40.630Z,1006.04
2016-06-07T07:19:40.648Z,1006.09
2016-06-07T07:20:40.666Z,1006.07
2016-06-07T07:21:40.701Z,1006.01
2016-06-07T07:22:40.734Z,1006.08
2016-06-07T07:23:40.752Z,1006.08
2016-06-07T07:24:40.772Z,1006.08
2016-06-07T07:25:40.805Z,1006.09
2016-06-07T07:26:40.824Z,1006.06
2016-06-07T07:27:40.841Z,1006.07
2016-06-07T07:28:40.875Z,1006.07
2016-06-07T07:29:40.894Z,1006.05
2016-06-07T07:30:40.913Z,1006.05
2016-06-07T07:31:40.946Z,1006.08
2016-06-07T07:32:40.965Z,1006.04
2016-06-07T07:33:40.983Z,1006.04
2016-06-07T07:34:41.017Z,1006.04
2016-06-07T07:35:41.035Z,1006.05
2016-06-07T07:36:41.054Z,1006.08
2016-06-07T07:37:41.229Z,1006.04
2016-06-07T07:38:41.106Z,1006.09
2016-06-07T07:39:41.123Z,1006.13
2016-06-07T07:40:41.157Z,1006.08
2016-06-07T07:41:41.177Z,1006.11
2016-06-07T07:42:41.210Z,1006.07
2016-06-07T07:43:41.229Z,1006.1
2016-06-07T07:44:41.247Z,1006.07
2016-06-07T07:45:41.281Z,1006.09
2016-06-07T07:46:41.298Z,1006.08
2016-06-07T07:47:41.318Z,1006.09
2016-06-07T07:48:41.351Z,1006.08
2016-06-07T07:49:41.369Z,1006.06
2016-06-07T07:50:41.388Z,1006.12
2016-06-07T07:51:41.422Z,1006.13
2016-06-07T07:52:41.440Z,1006.13
2016-06-07T07:53:41.458Z,1006.19
2016-06-07T07:54:41.492Z,1006.14
2016-06-07T07:55:41.511Z,1006.11
2016-06-07T07:56:41.544Z,1006.13
2016-06-07T07:57:41.563Z,1006.19
2016-06-07T07:58:41.581Z,1006.14
2016-06-07T07:59:41.600Z,1006.11
2016-06-07T08:00:41.633Z,1006.15
2016-06-07T08:01:41.652Z,1006.14
2016-06-07T08:02:41.686Z,1006.14
2016-06-07T08:03:41.704Z,1006.15
2016-06-07T08:04:41.722Z,1006.17
2016-06-07T08:05:41.756Z,1006.15
2016-06-07T08:06:41.774Z,1006.18
2016-06-07T08:07:41.810Z,1006.15
2016-06-07T08:08:41.827Z,1006.15
2016-06-07T08:09:41.846Z,1006.16
2016-06-07T08:10:41.863Z,1006.12
2016-06-07T08:11:41.898Z,1006.2
2016-06-07T08:12:41.916Z,1006.2
2016-06-07T08:13:41.950Z,1006.17
2016-06-07T08:14:41.968Z,1006.18
2016-06-07T08:15:41.986Z,1006.22
2016-06-07T08:16:42.020Z,1006.2
2016-06-07T08:17:42.039Z,1006.19
2016-06-07T08:18:42.073Z,1006.21
2016-06-07T08:19:42.092Z,1006.19
2016-06-07T08:20:42.125Z,1006.23
2016-06-07T08:21:42.142Z,1006.26
2016-06-07T08:22:42.161Z,1006.25
2016-06-07T08:23:42.196Z,1006.26
2016-06-07T08:24:42.214Z,1006.26
2016-06-07T08:25:42.232Z,1006.29
2016-06-07T08:26:42.266Z,1006.29
2016-06-07T08:27:42.284Z,1006.29
2016-06-07T08:28:42.302Z,1006.32
2016-06-07T08:29:42.337Z,1006.3
2016-06-07T08:30:42.355Z,1006.29
2016-06-07T08:31:42.389Z,1006.3
2016-06-07T08:32:42.407Z,1006.26
2016-06-07T08:33:42.441Z,1006.28
2016-06-07T08:34:42.459Z,1006.23
2016-06-07T08:35:42.477Z,1006.32
2016-06-07T08:36:42.528Z,1006.3
2016-06-07T08:37:42.530Z,1006.29
2016-06-07T08:38:42.563Z,1006.27
2016-06-07T08:39:42.582Z,1006.28
2016-06-07T08:40:42.600Z,1006.29
2016-06-07T08:41:42.635Z,1006.27
2016-06-07T08:42:42.653Z,1006.23
2016-06-07T08:43:42.671Z,1006.27
2016-06-07T08:44:42.704Z,1006.24
2016-06-07T08:45:42.723Z,1006.28
2016-06-07T08:46:42.742Z,1006.22
2016-06-07T08:47:42.776Z,1006.31
2016-06-07T08:48:42.794Z,1006.28
2016-06-07T08:49:42.828Z,1006.24
2016-06-07T08:50:42.845Z,1006.27
2016-06-07T08:51:42.881Z,1006.24
2016-06-07T08:52:42.898Z,1006.25
2016-06-07T08:53:42.917Z,1006.25
2016-06-07T08:54:42.950Z,1006.23
2016-06-07T08:55:42.969Z,1006.24
2016-06-07T08:56:42.987Z,1006.22
2016-06-07T08:57:43.022Z,1006.2
2016-06-07T08:58:43.039Z,1006.21
2016-06-07T08:59:53.324Z,1006.23
2016-06-07T09:00:43.092Z,1006.22
2016-06-07T09:01:43.125Z,1006.23
2016-06-07T09:02:43.144Z,1006.2
2016-06-07T09:03:43.178Z,1006.2
2016-06-07T09:04:43.196Z,1006.23
2016-06-07T09:05:43.215Z,1006.21
2016-06-07T09:06:43.249Z,1006.22
2016-06-07T09:07:43.376Z,1006.2
2016-06-07T09:08:43.285Z,1006.19
2016-06-07T09:09:43.319Z,1006.25
2016-06-07T09:10:43.337Z,1006.25
2016-06-07T09:11:43.372Z,1006.25
2016-06-07T09:12:43.390Z,1006.26
2016-06-07T09:13:43.424Z,1006.23
2016-06-07T09:14:43.442Z,1006.25
2016-06-07T09:15:43.476Z,1006.26
2016-06-07T09:16:43.495Z,1006.23
2016-06-07T09:17:43.512Z,1006.25
2016-06-07T09:18:43.546Z,1006.3
2016-06-07T09:19:43.565Z,1006.3
2016-06-07T09:20:43.583Z,1006.32
2016-06-07T09:21:43.618Z,1006.24
2016-06-07T09:22:43.636Z,1006.24
2016-06-07T09:23:44.497Z,1006.24
2016-06-07T09:24:43.687Z,1006.24
2016-06-07T09:25:43.706Z,1006.23
2016-06-07T09:26:43.740Z,1006.21
2016-06-07T09:27:43.759Z,1006.24
2016-06-07T09:28:43.792Z,1006.19
2016-06-07T09:29:43.810Z,1006.19
2016-06-07T09:30:43.828Z,1006.21
2016-06-07T09:31:43.864Z,1006.21
2016-06-07T09:32:43.881Z,1006.24
2016-06-07T09:33:43.916Z,1006.22
2016-06-07T09:34:43.934Z,1006.22
2016-06-07T09:35:43.952Z,1006.25
2016-06-07T09:36:43.985Z,1006.23
2016-06-07T09:37:44.019Z,1006.24
2016-06-07T09:38:44.835Z,1006.2
2016-06-07T09:39:44.056Z,1006.2
2016-06-07T09:40:44.090Z,1006.2
2016-06-07T09:41:44.108Z,1006.2
2016-06-07T09:42:44.143Z,1006.16
2016-06-07T09:43:44.160Z,1006.14
2016-06-07T09:44:44.179Z,1006.17
2016-06-07T09:45:44.212Z,1006.14
2016-06-07T09:46:44.232Z,1006.13
2016-06-07T09:47:44.265Z,1006.13
2016-06-07T09:48:44.284Z,1006.16
2016-06-07T09:49:44.302Z,1006.11
2016-06-07T09:50:44.336Z,1006.15
2016-06-07T09:51:44.354Z,1006.19
2016-06-07T09:52:44.388Z,1006.12
2016-06-07T09:53:44.687Z,1006.16
2016-06-07T09:54:44.440Z,1006.09
2016-06-07T09:55:44.459Z,1006.08
2016-06-07T09:56:44.477Z,1006.1
2016-06-07T09:57:44.511Z,1006.15
2016-06-07T09:58:44.529Z,1006.15
2016-06-07T09:59:44.563Z,1006.07
2016-06-07T10:00:44.581Z,1006.12
2016-06-07T10:01:44.616Z,1006.05
2016-06-07T10:02:44.633Z,1006.05
2016-06-07T10:03:44.652Z,1006.06
2016-06-07T10:04:44.686Z,1006
2016-06-07T10:05:44.705Z,1006.05
2016-06-07T10:06:44.738Z,1005.99
2016-06-07T10:07:44.757Z,1006
2016-06-07T10:08:45.494Z,1005.99
2016-06-07T10:09:44.809Z,1005.99
2016-06-07T10:10:44.827Z,1005.98
2016-06-07T10:11:44.860Z,1005.97
2016-06-07T10:12:44.895Z,1006
2016-06-07T10:13:44.898Z,1005.98
2016-06-07T10:14:44.932Z,1005.98
2016-06-07T10:15:44.950Z,1005.96
2016-06-07T10:16:44.984Z,1005.97
2016-06-07T10:17:45.002Z,1005.97
2016-06-07T10:18:45.037Z,1005.99
2016-06-07T10:19:45.056Z,1006.04
2016-06-07T10:20:45.089Z,1005.92
2016-06-07T10:21:45.107Z,1005.91
2016-06-07T10:22:45.142Z,1005.94
2016-06-07T10:23:45.207Z,1005.94
2016-06-07T10:24:45.178Z,1005.91
2016-06-07T10:25:45.213Z,1005.97
2016-06-07T10:26:45.230Z,1005.96
2016-06-07T10:27:45.265Z,1005.91
2016-06-07T10:28:45.282Z,1005.88
2016-06-07T10:30:05.082Z,1005.89
2016-06-07T10:30:45.334Z,1005.85
2016-06-07T10:31:45.354Z,1005.89
2016-06-07T10:32:45.387Z,1005.93
2016-06-07T10:33:45.421Z,1005.85
2016-06-07T10:34:45.440Z,1005.85
2016-06-07T10:35:45.458Z,1005.82
2016-06-07T10:36:45.492Z,1005.86
2016-06-07T10:37:45.509Z,1005.85
2016-06-07T10:38:45.529Z,1005.85
2016-06-07T10:39:45.562Z,1005.81
2016-06-07T10:40:45.581Z,1005.86
2016-06-07T10:41:45.615Z,1005.84
2016-06-07T10:42:45.633Z,1005.8
2016-06-07T10:43:45.667Z,1005.85
2016-06-07T10:44:45.686Z,1005.85
2016-06-07T10:45:45.719Z,1005.84
2016-06-07T10:46:45.738Z,1005.83
2016-06-07T10:47:45.771Z,1005.79
2016-06-07T10:48:45.790Z,1005.8
2016-06-07T10:49:45.824Z,1005.8
2016-06-07T10:50:45.842Z,1005.81
2016-06-07T10:51:45.860Z,1005.79
2016-06-07T10:52:45.894Z,1005.78
2016-06-07T10:53:45.927Z,1005.75
2016-06-07T10:54:45.959Z,1005.75
2016-06-07T10:55:45.993Z,1005.74
2016-06-07T10:56:46.041Z,1005.8
2016-06-07T10:57:46.075Z,1005.77
2016-06-07T10:58:46.124Z,1005.78
2016-06-07T10:59:46.149Z,1005.74
2016-06-07T11:00:46.188Z,1005.72
2016-06-07T11:01:46.211Z,1005.73
2016-06-07T11:02:46.236Z,1005.78
2016-06-07T11:03:46.291Z,1005.77
2016-06-07T11:04:46.296Z,1005.75
2016-06-07T11:05:46.331Z,1005.73
2016-06-07T11:06:46.352Z,1005.71
2016-06-07T11:07:46.372Z,1005.77
2016-06-07T11:08:46.409Z,1005.73
2016-06-07T11:09:46.443Z,1005.72
2016-06-07T11:10:46.461Z,1005.68
2016-06-07T11:11:46.497Z,1005.67
2016-06-07T11:12:46.516Z,1005.68
2016-06-07T11:13:46.550Z,1005.66
2016-06-07T11:14:46.569Z,1005.65
2016-06-07T11:15:46.588Z,1005.67
2016-06-07T11:16:46.622Z,1005.7
2016-06-07T11:17:46.641Z,1005.66
2016-06-07T11:18:46.675Z,1005.63
2016-06-07T11:19:46.709Z,1005.58
2016-06-07T11:20:46.728Z,1005.6
2016-06-07T11:21:46.745Z,1005.65
2016-06-07T11:22:46.795Z,1005.65
2016-06-07T11:23:46.954Z,1005.67
2016-06-07T11:24:46.832Z,1005.62
2016-06-07T11:25:46.850Z,1005.64
2016-06-07T11:26:46.883Z,1005.63
2016-06-07T11:27:46.903Z,1005.62
2016-06-07T11:28:46.936Z,1005.64
2016-06-07T11:29:46.955Z,1005.64
2016-06-07T11:30:46.988Z,1005.65
2016-06-07T11:31:47.008Z,1005.63
2016-06-07T11:32:47.041Z,1005.62
2016-06-07T11:33:47.060Z,1005.63
2016-06-07T11:34:47.093Z,1005.57
2016-06-07T11:35:47.112Z,1005.6
2016-06-07T11:36:47.145Z,1005.6
2016-06-07T11:37:47.163Z,1005.58
2016-06-07T11:38:47.198Z,1005.6
2016-06-07T11:39:47.215Z,1005.65
2016-06-07T11:40:47.250Z,1005.63
2016-06-07T11:41:47.268Z,1005.64
2016-06-07T11:42:47.302Z,1005.62
2016-06-07T11:43:47.321Z,1005.62
2016-06-07T11:44:47.354Z,1005.6
2016-06-07T11:45:47.373Z,1005.56
2016-06-07T11:46:47.406Z,1005.51
2016-06-07T11:47:47.425Z,1005.58
2016-06-07T11:48:47.459Z,1005.57
2016-06-07T11:49:47.478Z,1005.61
2016-06-07T11:50:47.512Z,1005.6
2016-06-07T11:51:47.530Z,1005.59
2016-06-07T11:52:47.564Z,1005.56
2016-06-07T11:53:47.581Z,1005.52
2016-06-07T11:54:47.616Z,1005.49
2016-06-07T11:55:47.633Z,1005.57
2016-06-07T11:56:47.653Z,1005.55
2016-06-07T11:57:47.686Z,1005.52
2016-06-07T11:58:47.720Z,1005.54
2016-06-07T11:59:47.739Z,1005.51
2016-06-07T12:00:47.772Z,1005.51
2016-06-07T12:01:47.791Z,1005.48
2016-06-07T12:02:47.824Z,1005.46
2016-06-07T12:03:47.843Z,1005.5
2016-06-07T12:04:47.877Z,1005.49
2016-06-07T12:05:47.896Z,1005.49
2016-06-07T12:06:47.930Z,1005.54
2016-06-07T12:07:47.948Z,1005.53
2016-06-07T12:08:48.060Z,1005.57
2016-06-07T12:09:47.999Z,1005.55
2016-06-07T12:10:48.034Z,1005.52